Etusivu
METAR-TAF:

METAR-TAF

Lentoasemat :

Pian Rosa, Italia

Leveyspiiri: 45-56N, Pituuspiiri: 007-42E, korkeus merenpinnasta: 3480 m

Tämänhetkinen sää

Tämä raportti tehtiin 50 minuuttia sitten, kello 08.55 UTC
Tuuli 4 kn idästä/koillisesta
Lämpötila 3°C
Kosteus 87%
Ilmanpaine 1035 hPa
Näkyvyys 10 km tai enemmän
ei pilviä alle 1500 m:ssä eikä cumulonimbus-pilviä

METAR: LIMH 180855Z 07004KT CAVOK 03/01 Q1035 RMK SKC MON LIB VAL NIL VIS MIN 9999

Aika: 11:45 (09:45 UTC)


TAF: puuttuu

Säähavainnot ja -ennusteet yli 4000 lentoasemalta (METAR- ja TAF-raportit).

Käytössä olevat sääasemat on merkitty karttaan keltaisilla ja punaisilla pisteillä.

Aseta hiiri pisteen päälle nähdäksesi sääaseman nimen.

Klikkaa sitten nähdäksesi säähavainnot ja -ennusteet.

Kartan vaihtaminen: klikkaa mustalla rastilla varustettuja vihreitä pisteitä, niin voit zoomata sisään; viivalla varustettua vihreää pistettä, niin voit zoomata ulos tai vihreitä nuolia, niin pääset viereisille kartoille.


METAR-TAF: